createdAt,value
2023-02-25T00:00:48.302Z,4.62
2023-02-25T00:02:03.064Z,4.65
2023-02-25T00:02:48.360Z,4.59
2023-02-25T00:03:48.417Z,4.59
2023-02-25T00:04:48.299Z,4.55
2023-02-25T00:05:48.365Z,4.54
2023-02-25T00:06:48.260Z,4.50
2023-02-25T00:07:48.382Z,4.51
2023-02-25T00:08:48.224Z,4.50
2023-02-25T00:09:48.296Z,4.47
2023-02-25T00:10:48.167Z,4.45
2023-02-25T00:11:48.317Z,4.45
2023-02-25T00:12:48.186Z,4.42
2023-02-25T00:13:48.275Z,4.41
2023-02-25T00:14:48.121Z,4.41
2023-02-25T00:15:48.278Z,4.40
2023-02-25T00:16:48.185Z,4.36
2023-02-25T00:17:48.241Z,4.34
2023-02-25T00:18:48.075Z,4.33
2023-02-25T00:19:48.217Z,4.32
2023-02-25T00:20:48.061Z,4.32
2023-02-25T00:21:48.174Z,4.29
2023-02-25T00:22:48.010Z,4.24
2023-02-25T00:23:48.184Z,4.20
2023-02-25T00:24:48.147Z,4.22
2023-02-25T00:25:47.994Z,4.24
2023-02-25T00:26:48.195Z,4.27
2023-02-25T00:27:47.986Z,4.24
2023-02-25T00:28:48.008Z,4.24
2023-02-25T00:29:47.992Z,4.26
2023-02-25T00:30:48.106Z,4.26
2023-02-25T00:31:48.201Z,4.27
2023-02-25T00:32:48.111Z,4.27
2023-02-25T00:33:47.906Z,4.30
2023-02-25T00:34:48.048Z,4.27
2023-02-25T00:35:47.903Z,4.26
2023-02-25T00:36:48.101Z,4.24
2023-02-25T00:37:47.852Z,4.27
2023-02-25T00:38:48.116Z,4.26
2023-02-25T00:39:47.958Z,4.24
2023-02-25T00:40:47.795Z,4.24
2023-02-25T00:41:47.904Z,4.26
2023-02-25T00:42:47.782Z,4.26
2023-02-25T00:43:47.813Z,4.27
2023-02-25T00:44:47.789Z,4.27
2023-02-25T00:45:47.842Z,4.26
2023-02-25T00:46:47.774Z,4.26
2023-02-25T00:47:47.834Z,4.29
2023-02-25T00:48:47.685Z,4.29
2023-02-25T00:49:47.861Z,4.27
2023-02-25T00:50:47.649Z,4.23
2023-02-25T00:51:47.923Z,4.23
2023-02-25T00:52:47.633Z,4.20
2023-02-25T00:53:47.898Z,4.20
2023-02-25T00:54:47.620Z,4.23
2023-02-25T00:55:47.694Z,4.22
2023-02-25T00:56:47.610Z,4.23
2023-02-25T00:57:47.719Z,4.24
2023-02-25T00:58:47.584Z,4.24
2023-02-25T00:59:47.724Z,4.22
2023-02-25T01:00:52.112Z,4.20
2023-02-25T01:01:47.614Z,4.16
2023-02-25T01:02:47.668Z,4.11
2023-02-25T01:03:47.528Z,4.02
2023-02-25T01:04:47.648Z,3.96
2023-02-25T01:05:47.707Z,3.96
2023-02-25T01:06:47.461Z,3.97
2023-02-25T01:07:47.736Z,3.98
2023-02-25T01:08:47.423Z,4.00
2023-02-25T01:09:47.504Z,3.98
2023-02-25T01:10:47.483Z,4.06
2023-02-25T01:11:47.450Z,4.06
2023-02-25T01:12:47.536Z,4.05
2023-02-25T01:13:47.417Z,4.04
2023-02-25T01:14:47.507Z,4.04
2023-02-25T01:15:47.610Z,4.05
2023-02-25T01:16:47.350Z,4.04
2023-02-25T01:17:47.541Z,4.04
2023-02-25T01:18:47.291Z,4.02
2023-02-25T01:19:47.562Z,3.98
2023-02-25T01:20:47.265Z,3.98
2023-02-25T01:21:47.587Z,3.93
2023-02-25T01:22:47.369Z,3.90
2023-02-25T01:23:47.388Z,3.87
2023-02-25T01:24:47.260Z,3.86
2023-02-25T01:25:47.309Z,3.80
2023-02-25T01:26:47.226Z,3.79
2023-02-25T01:27:47.347Z,3.78
2023-02-25T01:28:47.184Z,3.78
2023-02-25T01:29:47.387Z,3.78
2023-02-25T01:30:47.171Z,3.75
2023-02-25T01:31:47.554Z,3.76
2023-02-25T01:32:47.114Z,3.75
2023-02-25T01:33:47.297Z,3.72
2023-02-25T01:34:47.114Z,3.66
2023-02-25T01:35:47.176Z,3.60
2023-02-25T01:36:47.056Z,3.54
2023-02-25T01:37:47.214Z,3.51
2023-02-25T01:38:47.038Z,3.50
2023-02-25T01:39:47.177Z,3.50
2023-02-25T01:40:47.007Z,3.52
2023-02-25T01:41:47.097Z,3.54
2023-02-25T01:42:46.995Z,3.55
2023-02-25T01:43:47.155Z,3.57
2023-02-25T01:44:46.957Z,3.60
2023-02-25T01:45:47.120Z,3.61
2023-02-25T01:46:47.226Z,3.62
2023-02-25T01:47:46.944Z,3.61
2023-02-25T01:48:47.062Z,3.60
2023-02-25T01:49:46.931Z,3.65
2023-02-25T01:50:47.096Z,3.65
2023-02-25T01:51:47.095Z,3.65
2023-02-25T01:52:46.849Z,3.68
2023-02-25T01:53:46.983Z,3.69
2023-02-25T01:54:46.863Z,3.75
2023-02-25T01:55:47.086Z,3.76
2023-02-25T01:56:46.820Z,3.73
2023-02-25T01:57:46.917Z,3.73
2023-02-25T01:58:46.793Z,3.76
2023-02-25T01:59:46.980Z,3.80
2023-02-25T02:00:46.833Z,3.86
2023-02-25T02:01:46.935Z,3.84
2023-02-25T02:02:46.765Z,3.84
2023-02-25T02:03:46.844Z,3.86
2023-02-25T02:04:46.698Z,3.91
2023-02-25T02:05:46.905Z,3.88
2023-02-25T02:06:46.714Z,3.84
2023-02-25T02:07:46.765Z,3.80
2023-02-25T02:08:46.666Z,3.83
2023-02-25T02:09:46.783Z,3.80
2023-02-25T02:10:46.643Z,3.79
2023-02-25T02:11:46.854Z,3.79
2023-02-25T02:12:46.618Z,3.79
2023-02-25T02:13:46.704Z,3.84
2023-02-25T02:14:46.589Z,3.84
2023-02-25T02:15:46.726Z,3.83
2023-02-25T02:16:46.565Z,3.86
2023-02-25T02:17:46.787Z,3.83
2023-02-25T02:18:46.534Z,3.86
2023-02-25T02:19:46.653Z,3.86
2023-02-25T02:20:46.544Z,3.83
2023-02-25T02:21:46.685Z,3.80
2023-02-25T02:22:46.699Z,3.79
2023-02-25T02:23:46.486Z,3.83
2023-02-25T02:24:46.558Z,3.86
2023-02-25T02:25:46.481Z,3.83
2023-02-25T02:26:46.623Z,3.86
2023-02-25T02:27:46.597Z,3.83
2023-02-25T02:28:46.423Z,3.80
2023-02-25T02:29:46.517Z,3.76
2023-02-25T02:30:46.461Z,3.76
2023-02-25T02:31:46.617Z,3.79
2023-02-25T02:32:46.536Z,3.80
2023-02-25T02:33:46.544Z,3.86
2023-02-25T02:34:46.336Z,3.86
2023-02-25T02:35:46.506Z,3.91
2023-02-25T02:36:46.314Z,3.94
2023-02-25T02:37:46.524Z,3.94
2023-02-25T02:38:46.309Z,3.93
2023-02-25T02:39:46.485Z,3.94
2023-02-25T02:40:46.278Z,3.98
2023-02-25T02:41:46.544Z,4.00
2023-02-25T02:42:46.237Z,3.98
2023-02-25T02:43:46.359Z,3.97
2023-02-25T02:44:46.221Z,3.97
2023-02-25T02:45:46.377Z,3.96
2023-02-25T02:46:46.181Z,3.93
2023-02-25T02:47:46.428Z,3.93
2023-02-25T02:48:46.170Z,3.93
2023-02-25T02:49:46.239Z,3.93
2023-02-25T02:50:46.144Z,3.86
2023-02-25T02:51:46.270Z,3.84
2023-02-25T02:52:46.134Z,3.84
2023-02-25T02:53:46.279Z,3.84
2023-02-25T02:54:46.078Z,3.84
2023-02-25T02:55:46.193Z,3.84
2023-02-25T02:56:46.048Z,3.86
2023-02-25T02:57:46.242Z,3.88
2023-02-25T02:58:46.122Z,3.88
2023-02-25T02:59:46.041Z,3.88
2023-02-25T03:00:46.218Z,3.91
2023-02-25T03:01:46.015Z,3.91
2023-02-25T03:02:46.209Z,3.91
2023-02-25T03:03:46.150Z,3.91
2023-02-25T03:04:45.954Z,3.91
2023-02-25T03:05:46.060Z,3.93
2023-02-25T03:06:45.926Z,3.93
2023-02-25T03:07:46.113Z,3.91
2023-02-25T03:08:45.928Z,3.91
2023-02-25T03:09:46.096Z,3.88
2023-02-25T03:10:45.865Z,3.91
2023-02-25T03:11:45.974Z,3.90
2023-02-25T03:12:45.843Z,3.91
2023-02-25T03:13:46.035Z,3.90
2023-02-25T03:14:45.816Z,3.90
2023-02-25T03:15:46.008Z,3.88
2023-02-25T03:16:45.858Z,3.88
2023-02-25T03:17:46.018Z,3.87
2023-02-25T03:18:45.782Z,3.91
2023-02-25T03:19:45.869Z,3.90
2023-02-25T03:20:45.743Z,3.93
2023-02-25T03:21:45.852Z,3.94
2023-02-25T03:22:45.730Z,3.94
2023-02-25T03:23:45.866Z,3.94
2023-02-25T03:24:45.723Z,3.88
2023-02-25T03:25:45.881Z,3.87
2023-02-25T03:26:45.688Z,3.84
2023-02-25T03:27:45.922Z,3.86
2023-02-25T03:28:45.675Z,3.83
2023-02-25T03:29:45.941Z,3.80
2023-02-25T03:30:45.643Z,3.86
2023-02-25T03:31:45.887Z,3.80
2023-02-25T03:32:45.616Z,3.84
2023-02-25T03:33:45.733Z,3.83
2023-02-25T03:34:45.765Z,3.80
2023-02-25T03:35:45.593Z,3.87
2023-02-25T03:36:45.740Z,3.87
2023-02-25T03:37:45.574Z,3.88
2023-02-25T03:38:45.749Z,3.93
2023-02-25T03:39:45.827Z,3.97
2023-02-25T03:40:45.501Z,3.98
2023-02-25T03:41:45.802Z,4.00
2023-02-25T03:42:45.482Z,3.98
2023-02-25T03:43:45.607Z,4.00
2023-02-25T03:44:45.458Z,3.98
2023-02-25T03:45:45.649Z,4.04
2023-02-25T03:46:45.433Z,4.05
2023-02-25T03:47:45.521Z,4.04
2023-02-25T03:48:45.396Z,4.00
2023-02-25T03:49:45.622Z,3.97
2023-02-25T03:50:45.405Z,3.94
2023-02-25T03:51:45.606Z,3.96
2023-02-25T03:52:45.360Z,3.93
2023-02-25T03:53:45.572Z,3.88
2023-02-25T03:54:45.324Z,3.87
2023-02-25T03:55:45.585Z,3.86
2023-02-25T03:56:45.288Z,3.84
2023-02-25T03:57:45.444Z,3.87
2023-02-25T03:58:45.295Z,3.87
2023-02-25T03:59:45.401Z,3.86
2023-02-25T04:00:45.241Z,3.90
2023-02-25T04:01:45.436Z,3.86
2023-02-25T04:02:45.378Z,3.83
2023-02-25T04:03:45.322Z,3.76
2023-02-25T04:04:45.297Z,3.79
2023-02-25T04:05:45.349Z,3.75
2023-02-25T04:06:45.183Z,3.78
2023-02-25T04:07:45.314Z,3.78
2023-02-25T04:08:45.145Z,3.80
2023-02-25T04:09:45.321Z,3.79
2023-02-25T04:10:45.262Z,3.83
2023-02-25T04:11:45.129Z,3.80
2023-02-25T04:12:45.274Z,3.80
2023-02-25T04:13:45.128Z,3.83
2023-02-25T04:14:45.187Z,3.84
2023-02-25T04:15:45.093Z,3.83
2023-02-25T04:16:45.205Z,3.84
2023-02-25T04:17:45.099Z,3.87
2023-02-25T04:18:45.146Z,3.91
2023-02-25T04:19:45.004Z,3.93
2023-02-25T04:20:45.359Z,3.97
2023-02-25T04:21:44.979Z,4.02
2023-02-25T04:22:45.322Z,4.05
2023-02-25T04:23:45.023Z,4.04
2023-02-25T04:24:45.076Z,4.08
2023-02-25T04:25:44.942Z,4.06
2023-02-25T04:26:45.071Z,4.09
2023-02-25T04:27:51.067Z,4.11
2023-02-25T04:28:45.080Z,4.14
2023-02-25T04:29:44.903Z,4.16
2023-02-25T04:30:45.126Z,4.14
2023-02-25T04:31:45.021Z,4.15
2023-02-25T04:32:45.151Z,4.16
2023-02-25T04:33:44.857Z,4.16
2023-02-25T04:34:44.921Z,4.15
2023-02-25T04:35:44.811Z,4.14
2023-02-25T04:36:44.997Z,4.15
2023-02-25T04:37:44.779Z,4.14
2023-02-25T04:38:45.013Z,4.15
2023-02-25T04:39:44.767Z,4.14
2023-02-25T04:40:44.967Z,4.14
2023-02-25T04:41:44.968Z,4.15
2023-02-25T04:42:44.734Z,4.14
2023-02-25T04:43:45.006Z,4.15
2023-02-25T04:44:44.718Z,4.14
2023-02-25T04:45:44.799Z,4.12
2023-02-25T04:46:44.880Z,4.15
2023-02-25T04:47:44.666Z,4.15
2023-02-25T04:48:44.965Z,4.14
2023-02-25T04:49:44.734Z,4.14
2023-02-25T04:50:44.747Z,4.12
2023-02-25T04:51:44.597Z,4.06
2023-02-25T04:52:44.757Z,4.06
2023-02-25T04:53:44.584Z,4.06
2023-02-25T04:54:44.718Z,4.02
2023-02-25T04:55:44.535Z,4.04
2023-02-25T04:56:44.676Z,4.02
2023-02-25T04:57:44.516Z,4.02
2023-02-25T04:58:44.692Z,4.00
2023-02-25T04:59:44.546Z,4.00
2023-02-25T05:00:44.650Z,4.04
2023-02-25T05:01:44.556Z,4.02
2023-02-25T05:02:44.618Z,4.00
2023-02-25T05:03:44.437Z,4.04
2023-02-25T05:04:44.695Z,4.05
2023-02-25T05:05:44.436Z,4.05
2023-02-25T05:06:44.553Z,4.06
2023-02-25T05:07:44.401Z,4.09
2023-02-25T05:08:44.562Z,4.09
2023-02-25T05:09:44.392Z,4.09
2023-02-25T05:10:44.524Z,4.08
2023-02-25T05:11:44.342Z,4.08
2023-02-25T05:12:44.560Z,4.05
2023-02-25T05:13:44.321Z,4.04
2023-02-25T05:14:44.605Z,4.05
2023-02-25T05:15:44.378Z,4.05
2023-02-25T05:16:44.368Z,4.04
2023-02-25T05:17:44.399Z,4.02
2023-02-25T05:18:44.273Z,4.04
2023-02-25T05:19:44.415Z,4.06
2023-02-25T05:20:44.454Z,4.05
2023-02-25T05:21:44.433Z,4.04
2023-02-25T05:22:44.458Z,4.05
2023-02-25T05:23:44.229Z,4.04
2023-02-25T05:24:44.469Z,4.02
2023-02-25T05:25:44.192Z,4.02
2023-02-25T05:26:44.270Z,4.02
2023-02-25T05:27:44.240Z,4.02
2023-02-25T05:28:44.145Z,4.04
2023-02-25T05:29:44.405Z,4.00
2023-02-25T05:30:44.208Z,3.97
2023-02-25T05:31:44.509Z,3.91
2023-02-25T05:32:44.236Z,3.88
2023-02-25T05:33:44.211Z,3.90
2023-02-25T05:34:44.080Z,3.87
2023-02-25T05:35:44.226Z,3.86
2023-02-25T05:36:44.079Z,3.86
2023-02-25T05:37:44.233Z,3.79
2023-02-25T05:38:44.026Z,3.78
2023-02-25T05:39:44.253Z,3.72
2023-02-25T05:40:43.995Z,3.75
2023-02-25T05:41:44.058Z,3.76
2023-02-25T05:42:44.023Z,3.76
2023-02-25T05:43:44.062Z,3.79
2023-02-25T05:44:43.949Z,3.83
2023-02-25T05:45:44.079Z,3.87
2023-02-25T05:46:44.037Z,3.86
2023-02-25T05:47:44.050Z,3.84
2023-02-25T05:48:44.067Z,3.79
2023-02-25T05:49:43.860Z,3.80
2023-02-25T05:50:44.026Z,3.79
2023-02-25T05:51:43.850Z,3.78
2023-02-25T05:52:44.068Z,3.75
2023-02-25T05:53:43.800Z,3.70
2023-02-25T05:54:43.970Z,3.73
2023-02-25T05:55:43.767Z,3.73
2023-02-25T05:56:43.926Z,3.75
2023-02-25T05:57:43.736Z,3.73
2023-02-25T05:58:43.873Z,3.73
2023-02-25T05:59:43.727Z,3.73
2023-02-25T06:00:43.904Z,3.72
2023-02-25T06:01:43.742Z,3.70
2023-02-25T06:02:43.871Z,3.72
2023-02-25T06:03:43.804Z,3.70
2023-02-25T06:04:43.696Z,3.66
2023-02-25T06:05:44.889Z,3.62
2023-02-25T06:06:43.660Z,3.61
2023-02-25T06:07:43.727Z,3.58
2023-02-25T06:08:43.671Z,3.55
2023-02-25T06:09:43.737Z,3.52
2023-02-25T06:10:43.620Z,3.52
2023-02-25T06:11:43.644Z,3.55
2023-02-25T06:12:46.260Z,3.52
2023-02-25T06:13:43.668Z,3.51
2023-02-25T06:14:43.564Z,3.51
2023-02-25T06:15:43.680Z,3.50
2023-02-25T06:16:43.546Z,3.48
2023-02-25T06:17:43.702Z,3.47
2023-02-25T06:18:43.524Z,3.47
2023-02-25T06:19:43.704Z,3.47
2023-02-25T06:20:43.474Z,3.45
2023-02-25T06:21:43.719Z,3.40
2023-02-25T06:22:43.471Z,3.36
2023-02-25T06:23:43.569Z,3.33
2023-02-25T06:24:43.547Z,3.26
2023-02-25T06:25:43.406Z,3.28
2023-02-25T06:26:43.616Z,3.32
2023-02-25T06:27:43.354Z,3.32
2023-02-25T06:28:43.585Z,3.32
2023-02-25T06:29:43.502Z,3.32
2023-02-25T06:30:43.447Z,3.33
2023-02-25T06:31:43.685Z,3.33
2023-02-25T06:32:43.370Z,3.35
2023-02-25T06:33:43.402Z,3.39
2023-02-25T06:34:43.599Z,3.39
2023-02-25T06:35:43.282Z,3.39
2023-02-25T06:36:43.542Z,3.39
2023-02-25T06:37:43.236Z,3.40
2023-02-25T06:38:43.279Z,3.42
2023-02-25T06:39:43.339Z,3.40
2023-02-25T06:40:43.254Z,3.35
2023-02-25T06:41:43.409Z,3.31
2023-02-25T06:42:43.204Z,3.26
2023-02-25T06:43:43.374Z,3.20
2023-02-25T06:44:43.209Z,3.15
2023-02-25T06:45:43.468Z,3.14
2023-02-25T06:46:43.141Z,3.11
2023-02-25T06:47:43.412Z,3.06
2023-02-25T06:48:43.117Z,3.11
2023-02-25T06:49:43.200Z,3.11
2023-02-25T06:50:43.132Z,3.10
2023-02-25T06:51:43.319Z,3.11
2023-02-25T06:52:43.071Z,3.11
2023-02-25T06:53:43.223Z,3.10
2023-02-25T06:54:43.055Z,3.06
2023-02-25T06:55:43.135Z,3.05
2023-02-25T06:56:43.046Z,3.06
2023-02-25T06:57:43.155Z,3.08
2023-02-25T06:58:43.009Z,3.13
2023-02-25T06:59:43.061Z,3.17
2023-02-25T07:00:43.209Z,3.14
2023-02-25T07:01:42.966Z,3.08
2023-02-25T07:02:43.193Z,3.03
2023-02-25T07:03:42.918Z,3.00
2023-02-25T07:04:44.175Z,3.00
2023-02-25T07:05:43.059Z,2.97
2023-02-25T07:06:42.917Z,2.96
2023-02-25T07:07:43.069Z,2.95
2023-02-25T07:08:42.912Z,2.93
2023-02-25T07:09:43.065Z,2.92
2023-02-25T07:10:42.961Z,2.93
2023-02-25T07:11:42.825Z,2.93
2023-02-25T07:12:42.997Z,2.93
2023-02-25T07:13:42.836Z,2.90
2023-02-25T07:14:42.988Z,2.90
2023-02-25T07:15:42.958Z,2.87
2023-02-25T07:16:42.826Z,2.85
2023-02-25T07:17:42.890Z,2.85
2023-02-25T07:18:42.751Z,2.82
2023-02-25T07:19:42.891Z,2.87
2023-02-25T07:20:42.720Z,2.90
2023-02-25T07:21:42.973Z,2.99
2023-02-25T07:22:42.707Z,3.03
2023-02-25T07:23:42.858Z,3.11
2023-02-25T07:24:42.668Z,3.14
2023-02-25T07:25:42.732Z,3.18
2023-02-25T07:26:42.649Z,3.24
2023-02-25T07:27:44.654Z,3.31
2023-02-25T07:28:42.623Z,3.35
2023-02-25T07:29:42.772Z,3.42
2023-02-25T07:30:42.653Z,3.45
2023-02-25T07:31:42.845Z,3.50
2023-02-25T07:32:42.823Z,3.58
2023-02-25T07:33:42.691Z,3.65
2023-02-25T07:34:42.537Z,3.72
2023-02-25T07:35:42.710Z,3.75
2023-02-25T07:36:42.528Z,3.69
2023-02-25T07:37:42.768Z,3.62
2023-02-25T07:38:42.490Z,3.66
2023-02-25T07:39:42.683Z,3.69
2023-02-25T07:40:42.472Z,3.70
2023-02-25T07:41:42.577Z,3.68
2023-02-25T07:42:42.485Z,3.65
2023-02-25T07:43:42.601Z,3.62
2023-02-25T07:44:42.425Z,3.60
2023-02-25T07:45:42.761Z,3.62
2023-02-25T07:46:42.613Z,3.66
2023-02-25T07:47:42.382Z,3.70
2023-02-25T07:48:42.670Z,3.73
2023-02-25T07:49:42.332Z,3.70
2023-02-25T07:50:42.508Z,3.73
2023-02-25T07:51:42.521Z,3.68
2023-02-25T07:52:42.313Z,3.69
2023-02-25T07:53:42.446Z,3.62
2023-02-25T07:54:42.305Z,3.65
2023-02-25T07:55:42.335Z,3.66
2023-02-25T07:56:42.531Z,3.72
2023-02-25T07:57:42.239Z,3.76
2023-02-25T07:58:42.389Z,3.88
2023-02-25T07:59:42.227Z,4.05
2023-02-25T08:00:42.461Z,4.22
2023-02-25T08:01:42.198Z,4.41
2023-02-25T08:02:42.344Z,4.48
2023-02-25T08:03:42.159Z,4.59
2023-02-25T08:04:42.264Z,4.70
2023-02-25T08:05:42.129Z,4.70
2023-02-25T08:06:42.273Z,4.72
2023-02-25T08:07:42.112Z,4.77
2023-02-25T08:08:42.240Z,4.84
2023-02-25T08:09:42.119Z,4.89
2023-02-25T08:10:42.255Z,4.91
2023-02-25T08:11:42.120Z,4.96
2023-02-25T08:12:42.265Z,4.99
2023-02-25T08:13:42.027Z,5.02
2023-02-25T08:14:42.125Z,5.02
2023-02-25T08:15:42.036Z,5.10
2023-02-25T08:16:42.150Z,5.15
2023-02-25T08:17:41.990Z,5.17
2023-02-25T08:18:42.114Z,5.20
2023-02-25T08:19:41.981Z,5.22
2023-02-25T08:20:42.136Z,5.20
2023-02-25T08:21:41.963Z,5.25
2023-02-25T08:22:42.040Z,5.33
2023-02-25T08:23:41.928Z,5.45
2023-02-25T08:24:42.045Z,5.61
2023-02-25T08:25:41.909Z,5.82
2023-02-25T08:26:42.067Z,5.97
2023-02-25T08:27:41.969Z,6.03
2023-02-25T08:28:41.866Z,6.11
2023-02-25T08:29:41.936Z,6.01
2023-02-25T08:30:41.860Z,5.81
2023-02-25T08:31:42.248Z,5.58
2023-02-25T08:32:42.113Z,5.40
2023-02-25T08:33:41.815Z,5.35
2023-02-25T08:34:41.904Z,5.35
2023-02-25T08:35:41.810Z,5.43
2023-02-25T08:36:41.917Z,5.46
2023-02-25T08:37:41.762Z,5.43
2023-02-25T08:38:41.818Z,5.46
2023-02-25T08:39:41.791Z,5.46
2023-02-25T08:40:41.729Z,5.49
2023-02-25T08:41:41.720Z,5.43
2023-02-25T08:42:41.763Z,5.35
2023-02-25T08:43:41.713Z,5.38
2023-02-25T08:44:41.859Z,5.36
2023-02-25T08:45:41.681Z,5.36
2023-02-25T08:46:41.697Z,5.25
2023-02-25T08:47:41.615Z,5.21
2023-02-25T08:48:41.728Z,5.24
2023-02-25T08:49:41.624Z,5.25
2023-02-25T08:50:41.603Z,5.25
2023-02-25T08:51:41.588Z,5.25
2023-02-25T08:52:42.359Z,5.27
2023-02-25T08:53:41.561Z,5.25
2023-02-25T08:54:41.622Z,5.25
2023-02-25T08:55:41.546Z,5.21
2023-02-25T08:56:41.628Z,5.18
2023-02-25T08:57:41.566Z,5.13
2023-02-25T08:58:41.705Z,5.10
2023-02-25T08:59:41.496Z,5.10
2023-02-25T09:00:41.568Z,5.13
2023-02-25T09:01:42.103Z,5.10
2023-02-25T09:02:41.575Z,5.04
2023-02-25T09:03:41.550Z,5.03
2023-02-25T09:04:41.438Z,4.97
2023-02-25T09:05:41.603Z,4.85
2023-02-25T09:06:41.383Z,4.75
2023-02-25T09:07:41.405Z,4.69
2023-02-25T09:08:41.484Z,4.59
2023-02-25T09:09:41.399Z,4.50
2023-02-25T09:10:50.134Z,4.42
2023-02-25T09:11:41.343Z,4.37
2023-02-25T09:12:41.415Z,4.36
2023-02-25T09:13:41.291Z,4.36
2023-02-25T09:14:41.356Z,4.36
2023-02-25T09:15:41.468Z,4.37
2023-02-25T09:16:41.435Z,4.33
2023-02-25T09:17:41.333Z,4.36
2023-02-25T09:18:41.374Z,4.36
2023-02-25T09:19:41.240Z,4.36
2023-02-25T09:20:41.404Z,4.34
2023-02-25T09:21:41.228Z,4.30
2023-02-25T09:22:41.250Z,4.32
2023-02-25T09:23:41.168Z,4.27
2023-02-25T09:24:41.283Z,4.23
2023-02-25T09:25:41.123Z,4.18
2023-02-25T09:26:41.134Z,4.16
2023-02-25T09:27:41.141Z,4.20
2023-02-25T09:28:41.150Z,4.23
2023-02-25T09:29:41.244Z,4.23
2023-02-25T09:30:41.105Z,4.22
2023-02-25T09:31:41.388Z,4.26
2023-02-25T09:32:41.206Z,4.30
2023-02-25T09:33:41.204Z,4.27
2023-02-25T09:34:40.990Z,4.24
2023-02-25T09:35:41.124Z,4.22
2023-02-25T09:36:40.973Z,4.16
2023-02-25T09:37:41.156Z,4.15
2023-02-25T09:38:40.971Z,4.09
2023-02-25T09:39:41.042Z,3.98
2023-02-25T09:40:41.069Z,3.94
2023-02-25T09:41:41.045Z,3.94
2023-02-25T09:42:40.907Z,3.93
2023-02-25T09:43:41.104Z,3.93
2023-02-25T09:44:40.963Z,3.96
2023-02-25T09:45:41.003Z,3.98
2023-02-25T09:46:40.988Z,4.00
2023-02-25T09:47:40.898Z,4.05
2023-02-25T09:48:40.891Z,4.09
2023-02-25T09:49:40.889Z,4.16
2023-02-25T09:50:40.895Z,4.26
2023-02-25T09:51:40.845Z,4.37
2023-02-25T09:52:40.998Z,4.50
2023-02-25T09:53:40.824Z,4.55
2023-02-25T09:54:41.051Z,4.54
2023-02-25T09:55:40.762Z,4.65
2023-02-25T09:56:40.841Z,4.73
2023-02-25T09:57:40.739Z,4.82
2023-02-25T09:58:40.782Z,4.86
2023-02-25T09:59:40.757Z,4.94
2023-02-25T10:00:40.811Z,5.00
2023-02-25T10:01:40.678Z,5.02
2023-02-25T10:02:41.085Z,5.10
2023-02-25T10:03:40.675Z,5.28
2023-02-25T10:04:40.792Z,5.81
2023-02-25T10:05:40.669Z,5.90
2023-02-25T10:06:42.525Z,5.96
2023-02-25T10:07:40.629Z,5.94
2023-02-25T10:08:40.727Z,5.85
2023-02-25T10:09:41.676Z,5.78
2023-02-25T10:10:40.718Z,5.81
2023-02-25T10:11:40.626Z,5.83
2023-02-25T10:12:40.655Z,5.82
2023-02-25T10:13:40.542Z,5.72
2023-02-25T10:14:40.713Z,5.57
2023-02-25T10:15:41.132Z,5.60
2023-02-25T10:16:40.521Z,5.81
2023-02-25T10:17:40.700Z,6.11
2023-02-25T10:18:40.456Z,8.19
2023-02-25T10:19:40.511Z,8.28
2023-02-25T10:20:40.542Z,8.01
2023-02-25T10:21:40.436Z,7.85
2023-02-25T10:22:40.462Z,9.40
2023-02-25T10:23:40.435Z,9.94
2023-02-25T10:24:40.514Z,9.28
2023-02-25T10:25:40.392Z,8.66
2023-02-25T10:26:40.581Z,8.92
2023-02-25T10:27:40.364Z,11.00
2023-02-25T10:28:40.549Z,10.36
2023-02-25T10:29:40.342Z,10.17
2023-02-25T10:30:40.708Z,9.89
2023-02-25T10:31:40.569Z,9.69
2023-02-25T10:32:40.407Z,9.15
2023-02-25T10:33:40.302Z,8.66
2023-02-25T10:34:40.375Z,8.41
2023-02-25T10:35:40.259Z,8.22
2023-02-25T10:36:40.332Z,7.90
2023-02-25T10:37:40.232Z,7.69
2023-02-25T10:38:40.304Z,7.42
2023-02-25T10:39:40.191Z,7.31
2023-02-25T10:40:40.329Z,6.99
2023-02-25T10:41:40.165Z,6.64
2023-02-25T10:42:40.275Z,6.28
2023-02-25T10:43:40.157Z,6.08
2023-02-25T10:44:40.268Z,6.01
2023-02-25T10:45:40.116Z,6.00
2023-02-25T10:46:40.351Z,5.86
2023-02-25T10:47:40.136Z,5.78
2023-02-25T10:48:40.177Z,5.68
2023-02-25T10:49:40.081Z,5.61
2023-02-25T10:50:45.871Z,5.57
2023-02-25T10:51:40.218Z,5.58
2023-02-25T10:52:40.035Z,5.57
2023-02-25T10:53:40.223Z,5.54
2023-02-25T10:54:39.977Z,5.53
2023-02-25T10:55:40.244Z,5.51
2023-02-25T10:56:40.078Z,5.43
2023-02-25T10:57:40.021Z,5.30
2023-02-25T10:58:40.061Z,5.18
2023-02-25T10:59:39.961Z,5.12
2023-02-25T11:00:40.065Z,5.07
2023-02-25T11:01:40.016Z,5.03
2023-02-25T11:02:39.994Z,5.04
2023-02-25T11:03:40.003Z,5.03
2023-02-25T11:04:39.862Z,5.06
2023-02-25T11:05:40.030Z,5.12
2023-02-25T11:06:39.830Z,5.15
2023-02-25T11:07:40.028Z,5.09
2023-02-25T11:08:39.816Z,5.03
2023-02-25T11:09:40.088Z,5.02
2023-02-25T11:10:39.780Z,4.97
2023-02-25T11:11:39.962Z,4.96
2023-02-25T11:12:39.791Z,4.94
2023-02-25T11:13:39.873Z,4.85
2023-02-25T11:14:39.771Z,4.80
2023-02-25T11:15:45.866Z,4.82
2023-02-25T11:16:39.810Z,4.82
2023-02-25T11:17:39.885Z,4.88
2023-02-25T11:18:39.725Z,4.89
2023-02-25T11:19:39.798Z,4.92
2023-02-25T11:20:39.679Z,4.92
2023-02-25T11:21:39.912Z,4.94
2023-02-25T11:22:39.720Z,4.91
2023-02-25T11:23:39.649Z,4.94
2023-02-25T11:24:39.770Z,4.99
2023-02-25T11:25:39.617Z,5.07
2023-02-25T11:26:39.745Z,5.12
2023-02-25T11:27:39.770Z,5.10
2023-02-25T11:28:39.545Z,5.12
2023-02-25T11:29:39.829Z,5.09
2023-02-25T11:30:39.551Z,5.09
2023-02-25T11:31:40.085Z,5.09
2023-02-25T11:32:39.532Z,5.07
2023-02-25T11:33:39.592Z,5.09
2023-02-25T11:34:39.496Z,5.03
2023-02-25T11:35:39.838Z,5.07
2023-02-25T11:36:39.452Z,5.07
2023-02-25T11:37:40.930Z,5.07
2023-02-25T11:38:39.445Z,5.09
2023-02-25T11:39:39.588Z,5.09
2023-02-25T11:40:39.406Z,5.09
2023-02-25T11:41:39.549Z,5.06
2023-02-25T11:42:39.412Z,5.09
2023-02-25T11:43:39.562Z,5.06
2023-02-25T11:44:39.374Z,5.09
2023-02-25T11:45:39.474Z,5.07
2023-02-25T11:46:39.390Z,5.13
2023-02-25T11:47:39.695Z,5.20
2023-02-25T11:48:39.281Z,5.20
2023-02-25T11:49:41.656Z,5.24
2023-02-25T11:50:39.285Z,5.27
2023-02-25T11:51:39.468Z,5.18
2023-02-25T11:52:39.264Z,5.24
2023-02-25T11:53:39.628Z,5.35
2023-02-25T11:54:39.472Z,5.43
2023-02-25T11:55:39.439Z,5.56
2023-02-25T11:56:39.547Z,5.64
2023-02-25T11:57:39.398Z,5.67
2023-02-25T11:58:39.246Z,5.68
2023-02-25T11:59:39.357Z,5.68
2023-02-25T12:00:39.137Z,5.67
2023-02-25T12:01:39.450Z,5.61
2023-02-25T12:02:39.163Z,5.58
2023-02-25T12:03:39.307Z,5.58
2023-02-25T12:04:39.139Z,5.58
2023-02-25T12:05:39.222Z,5.56
2023-02-25T12:06:39.085Z,5.51
2023-02-25T12:07:39.270Z,5.48
2023-02-25T12:08:39.102Z,5.46
2023-02-25T12:09:39.044Z,5.53
2023-02-25T12:10:39.104Z,5.56
2023-02-25T12:11:39.022Z,5.61
2023-02-25T12:12:39.234Z,5.58
2023-02-25T12:13:39.106Z,5.63
2023-02-25T12:14:38.956Z,5.60
2023-02-25T12:15:39.086Z,5.54
2023-02-25T12:16:38.947Z,5.61
2023-02-25T12:17:39.130Z,5.67
2023-02-25T12:18:39.132Z,5.75
2023-02-25T12:19:38.920Z,5.75
2023-02-25T12:20:39.084Z,5.79
2023-02-25T12:21:38.903Z,5.79
2023-02-25T12:22:39.147Z,5.81
2023-02-25T12:23:38.882Z,5.82
2023-02-25T12:24:39.096Z,5.82
2023-02-25T12:25:38.858Z,5.81
2023-02-25T12:26:38.914Z,5.72
2023-02-25T12:27:38.858Z,5.64
2023-02-25T12:28:38.881Z,5.54
2023-02-25T12:29:38.792Z,5.48
2023-02-25T12:30:38.954Z,5.43
2023-02-25T12:31:38.903Z,5.35
2023-02-25T12:32:39.003Z,5.21
2023-02-25T12:33:38.751Z,5.17
2023-02-25T12:34:38.761Z,5.13
2023-02-25T12:35:38.726Z,5.04
2023-02-25T12:37:36.388Z,4.97
2023-02-25T12:38:37.250Z,4.91
2023-02-25T12:39:37.361Z,4.86
2023-02-25T12:40:37.210Z,4.85
2023-02-25T12:41:37.381Z,4.85
2023-02-25T12:42:37.226Z,4.80
2023-02-25T12:43:37.441Z,4.80
2023-02-25T12:44:37.425Z,4.85
2023-02-25T12:45:37.178Z,4.91
2023-02-25T12:46:37.242Z,4.96
2023-02-25T12:47:37.320Z,5.02
2023-02-25T12:48:38.103Z,5.10
2023-02-25T12:49:37.449Z,5.15
2023-02-25T12:50:37.534Z,5.17
2023-02-25T12:51:37.277Z,5.18
2023-02-25T12:52:37.126Z,5.21
2023-02-25T12:53:37.665Z,5.18
2023-02-25T12:54:37.069Z,5.18
2023-02-25T12:55:37.185Z,5.09
2023-02-25T12:56:37.036Z,5.04
2023-02-25T12:57:37.304Z,5.00
2023-02-25T12:58:37.017Z,4.97
2023-02-25T12:59:37.175Z,4.94
2023-02-25T13:00:36.983Z,4.96
2023-02-25T13:01:37.230Z,4.91
2023-02-25T13:02:36.956Z,4.96
2023-02-25T13:03:37.124Z,4.96
2023-02-25T13:04:36.923Z,4.94
2023-02-25T13:05:38.506Z,4.97
2023-02-25T13:06:36.901Z,5.03
2023-02-25T13:07:36.971Z,5.15
2023-02-25T13:08:36.864Z,5.18
2023-02-25T13:09:36.972Z,5.28
2023-02-25T13:10:37.055Z,5.35
2023-02-25T13:11:48.207Z,5.39
2023-02-25T13:12:36.850Z,5.33
2023-02-25T13:13:36.900Z,5.30
2023-02-25T13:14:36.825Z,5.31
2023-02-25T13:15:36.909Z,5.33
2023-02-25T13:16:36.848Z,5.36
2023-02-25T13:17:36.920Z,5.42
2023-02-25T13:18:36.747Z,5.48
2023-02-25T13:19:36.980Z,5.56